Time;durP1;ratioP1;P1;durP2;ratioP2;P2;SDS_P1;SDS_P2;PMS_P1;PMS_P2;Temp;Humidity;BMP_temperature;BMP_pressure;BME280_temperature;BME280_humidity;BME280_pressure;Samples;Min_cycle;Max_cycle;Signal;HPM_P1;HPM_P2
2023/05/25 00:00:12;;;;;;;4.95;1.90;;;10.50;99.90;;;;;;5053952;28;20533;-49
2023/05/25 00:02:38;;;;;;;5.78;1.88;;;10.50;99.90;;;;;;5053962;28;20056;-48
2023/05/25 00:05:06;;;;;;;5.53;1.90;;;10.50;99.90;;;;;;5054128;28;20041;-49
2023/05/25 00:07:32;;;;;;;5.45;1.92;;;10.50;99.90;;;;;;5053902;28;20495;-49
2023/05/25 00:09:58;;;;;;;4.60;1.90;;;10.50;99.90;;;;;;5054049;28;20055;-49
2023/05/25 00:12:24;;;;;;;7.47;2.17;;;10.40;99.90;;;;;;5053967;28;20477;-49
2023/05/25 00:14:50;;;;;;;8.60;2.10;;;10.50;99.90;;;;;;5054081;28;20057;-49
2023/05/25 00:17:17;;;;;;;7.23;2.03;;;10.40;99.90;;;;;;5053619;28;20064;-49
2023/05/25 00:19:43;;;;;;;6.07;2.72;;;10.50;99.90;;;;;;5052862;28;20041;-48
2023/05/25 00:22:10;;;;;;;4.78;2.08;;;10.50;99.90;;;;;;5053646;28;20124;-48
2023/05/25 00:24:36;;;;;;;;;;;10.50;99.90;;;;;;5054424;28;20048;-50
2023/05/25 00:27:02;;;;;;;6.30;2.53;;;10.50;99.90;;;;;;5053713;28;20011;-48
2023/05/25 00:29:28;;;;;;;5.03;1.63;;;10.50;99.90;;;;;;5053636;28;20132;-49
2023/05/25 00:31:54;;;;;;;7.88;2.00;;;10.50;99.90;;;;;;5053583;28;20143;-49
2023/05/25 00:34:20;;;;;;;9.23;2.00;;;10.40;99.90;;;;;;5052687;28;20531;-48
2023/05/25 00:36:49;;;;;;;5.53;1.88;;;10.40;99.90;;;;;;5053598;28;20128;-48
2023/05/25 00:39:16;;;;;;;6.47;1.77;;;10.30;99.90;;;;;;5053911;28;20064;-48
2023/05/25 00:41:46;;;;;;;4.25;1.55;;;10.40;99.90;;;;;;5053629;28;20084;-49
2023/05/25 00:44:13;;;;;;;6.20;1.67;;;10.30;99.90;;;;;;5053410;28;20045;-49
2023/05/25 00:46:50;;;;;;;6.32;2.05;;;10.30;99.90;;;;;;5052588;28;20092;-49
2023/05/25 00:49:21;;;;;;;5.03;1.90;;;10.30;99.90;;;;;;5053554;28;20044;-48
2023/05/25 00:51:50;;;;;;;5.05;1.80;;;10.30;99.90;;;;;;5052148;28;20041;-49
2023/05/25 00:57:40;;;;;;;6.70;1.60;;;10.30;99.90;;;;;;5053204;28;20542;-49
2023/05/25 01:00:10;;;;;;;3.88;1.70;;;10.30;99.90;;;;;;5053551;28;20037;-49
2023/05/25 01:02:39;;;;;;;6.00;2.45;;;10.30;99.90;;;;;;5053359;28;20136;-48
2023/05/25 01:05:07;;;;;;;6.53;1.92;;;10.20;99.90;;;;;;5053140;28;20041;-48
2023/05/25 01:07:33;;;;;;;5.00;1.90;;;10.20;99.90;;;;;;5057237;28;20040;-48
2023/05/25 01:10:05;;;;;;;4.63;1.70;;;10.20;99.90;;;;;;5057309;28;20128;-49
2023/05/25 01:12:36;;;;;;;6.00;2.03;;;10.20;99.90;;;;;;5057577;28;20382;-48
2023/05/25 01:15:03;;;;;;;6.50;1.90;;;10.10;99.90;;;;;;5057640;28;20053;-48
2023/05/25 01:17:29;;;;;;;5.13;1.88;;;10.10;99.90;;;;;;5056071;28;20140;-49
2023/05/25 01:19:57;;;;;;;7.25;1.80;;;10.10;99.90;;;;;;5056874;28;20088;-49
2023/05/25 01:25:52;;;;;;;5.05;1.90;;;10.10;99.90;;;;;;5057094;28;20098;-48
2023/05/25 01:28:27;;;;;;;4.65;1.80;;;10.10;99.90;;;;;;5057276;28;20048;-49
2023/05/25 01:30:55;;;;;;;5.78;2.10;;;10.00;99.90;;;;;;5057122;28;20045;-48
2023/05/25 01:33:22;;;;;;;5.50;1.95;;;10.00;99.90;;;;;;5055960;28;20115;-48
2023/05/25 01:35:49;;;;;;;6.68;2.13;;;10.00;99.90;;;;;;5056898;28;20053;-48
2023/05/25 01:38:17;;;;;;;4.15;1.73;;;10.10;99.90;;;;;;5056880;28;20044;-48
2023/05/25 01:40:42;;;;;;;4.65;1.85;;;10.10;99.90;;;;;;5057146;28;20045;-48
2023/05/25 01:43:08;;;;;;;4.28;2.13;;;10.10;99.90;;;;;;5056801;28;20040;-48
2023/05/25 01:45:35;;;;;;;5.82;1.77;;;10.10;99.90;;;;;;5055598;28;20523;-48
2023/05/25 01:48:37;;;;;;;5.55;2.17;;;10.10;99.90;;;;;;5039107;28;20049;-49
2023/05/25 01:51:14;;;;;;;4.72;1.77;;;10.00;99.90;;;;;;5055556;28;20056;-48
2023/05/25 01:53:44;;;;;;;5.68;1.90;;;10.00;99.90;;;;;;5056813;28;20053;-48
2023/05/25 01:56:12;;;;;;;8.77;2.20;;;10.00;99.90;;;;;;5056843;28;20127;-48
2023/05/25 01:58:41;;;;;;;6.30;1.80;;;10.00;99.90;;;;;;5056485;28;20049;-49
2023/05/25 02:01:13;;;;;;;5.65;2.03;;;9.90;99.90;;;;;;5056235;28;20439;-48
2023/05/25 02:03:43;;;;;;;6.10;2.10;;;9.90;99.90;;;;;;5056725;28;20092;-48
2023/05/25 02:06:09;;;;;;;5.38;1.98;;;9.90;99.90;;;;;;5056498;28;20103;-49
2023/05/25 02:08:35;;;;;;;4.63;2.10;;;9.80;99.90;;;;;;5056374;28;20084;-48
2023/05/25 02:11:02;;;;;;;8.13;2.03;;;9.80;99.90;;;;;;5055182;28;20092;-48
2023/05/25 02:13:28;;;;;;;7.65;2.28;;;9.80;99.90;;;;;;5055857;28;20052;-48
2023/05/25 02:15:53;;;;;;;3.83;1.80;;;9.70;99.90;;;;;;5054956;28;20094;-49
2023/05/25 02:18:19;;;;;;;5.07;1.90;;;9.80;99.90;;;;;;5055192;28;20366;-48
2023/05/25 02:20:46;;;;;;;4.73;2.07;;;9.70;99.90;;;;;;5055993;28;20496;-48
2023/05/25 02:23:11;;;;;;;;;;;9.70;99.90;;;;;;5056425;28;20094;-49
2023/05/25 02:25:37;;;;;;;4.95;1.85;;;9.60;99.90;;;;;;5055974;28;20011;-48
2023/05/25 02:28:03;;;;;;;4.33;1.93;;;9.60;99.90;;;;;;5055912;28;20099;-49
2023/05/25 02:30:29;;;;;;;5.18;2.35;;;9.60;99.90;;;;;;5055651;28;20480;-48
2023/05/25 02:32:55;;;;;;;7.32;2.55;;;9.60;99.90;;;;;;5054887;28;20051;-48
2023/05/25 02:35:21;;;;;;;5.57;2.57;;;9.60;99.90;;;;;;5055844;28;20047;-48
2023/05/25 02:37:47;;;;;;;6.22;2.05;;;9.60;99.90;;;;;;5055670;28;20137;-48
2023/05/25 02:40:13;;;;;;;7.60;2.63;;;9.60;99.90;;;;;;5055807;28;20498;-48
2023/05/25 02:42:39;;;;;;;6.43;2.53;;;9.60;99.90;;;;;;5055621;28;20132;-48
2023/05/25 02:45:09;;;;;;;6.43;2.37;;;9.60;99.90;;;;;;5055544;28;20041;-48
2023/05/25 02:47:35;;;;;;;6.30;2.75;;;9.60;99.90;;;;;;5055556;28;20135;-48
2023/05/25 02:50:01;;;;;;;5.45;2.35;;;9.60;99.90;;;;;;5055558;28;20086;-49
2023/05/25 02:52:29;;;;;;;6.28;2.33;;;9.60;99.90;;;;;;5055494;28;20052;-48
2023/05/25 02:54:55;;;;;;;5.30;2.22;;;9.60;99.90;;;;;;5055354;28;20492;-48
2023/05/25 02:57:22;;;;;;;7.40;2.50;;;9.60;99.90;;;;;;5055353;28;20045;-48
2023/05/25 02:59:48;;;;;;;;;;;9.50;99.90;;;;;;5055683;28;20045;-48
2023/05/25 03:02:13;;;;;;;7.93;2.13;;;9.50;99.90;;;;;;5055245;28;20379;-48
2023/05/25 03:04:40;;;;;;;5.57;2.60;;;9.40;99.90;;;;;;5055055;28;20096;-49
2023/05/25 03:07:06;;;;;;;5.78;2.17;;;9.40;99.90;;;;;;5055518;28;20558;-48
2023/05/25 03:09:32;;;;;;;7.00;2.40;;;9.40;99.90;;;;;;5054326;28;20054;-48
2023/05/25 03:11:57;;;;;;;4.90;1.87;;;9.40;99.90;;;;;;5055146;28;20056;-48
2023/05/25 03:14:23;;;;;;;5.60;2.07;;;9.30;99.90;;;;;;5054630;28;20064;-49
2023/05/25 03:16:49;;;;;;;5.40;2.30;;;9.30;99.90;;;;;;5054233;28;20404;-48
2023/05/25 03:19:14;;;;;;;4.93;2.20;;;9.30;99.90;;;;;;5053989;28;20049;-49
2023/05/25 03:21:40;;;;;;;6.70;2.40;;;9.30;99.90;;;;;;5053816;28;20056;-48
2023/05/25 03:24:06;;;;;;;6.50;2.20;;;9.30;99.90;;;;;;5054983;28;20420;-49
2023/05/25 03:26:32;;;;;;;4.17;1.90;;;9.30;99.90;;;;;;5054760;28;20407;-49
2023/05/25 03:28:58;;;;;;;5.43;2.10;;;9.30;99.90;;;;;;5054679;28;20052;-48
2023/05/25 03:31:24;;;;;;;5.87;2.10;;;9.30;99.90;;;;;;5053598;28;20435;-50
2023/05/25 03:33:49;;;;;;;4.87;2.00;;;9.30;99.90;;;;;;5053926;28;20045;-48
2023/05/25 03:36:16;;;;;;;6.60;2.17;;;9.30;99.90;;;;;;5054602;28;20103;-50
2023/05/25 03:38:42;;;;;;;3.30;1.40;;;9.30;99.90;;;;;;5054435;28;20547;-48
2023/05/25 03:41:08;;;;;;;5.50;2.08;;;9.20;99.90;;;;;;5054543;28;20139;-49
2023/05/25 03:43:34;;;;;;;6.20;2.27;;;9.20;99.90;;;;;;5054457;28;20099;-50
2023/05/25 03:46:00;;;;;;;6.87;2.00;;;9.20;99.90;;;;;;5055198;28;20099;-48
2023/05/25 03:48:25;;;;;;;4.57;1.73;;;9.20;99.90;;;;;;5054225;28;20524;-49
2023/05/25 03:50:52;;;;;;;6.33;2.07;;;9.20;99.90;;;;;;5054461;28;20307;-49
2023/05/25 03:53:17;;;;;;;4.15;1.88;;;9.20;99.90;;;;;;5054425;28;20048;-50
2023/05/25 03:55:43;;;;;;;5.07;1.90;;;9.30;99.90;;;;;;5054210;28;20399;-48
2023/05/25 03:58:09;;;;;;;5.90;1.90;;;9.30;99.90;;;;;;5054179;28;20412;-48
2023/05/25 04:00:35;;;;;;;5.17;2.37;;;9.30;99.90;;;;;;5053866;28;20076;-49
2023/05/25 04:03:01;;;;;;;4.60;2.40;;;9.30;99.90;;;;;;5053957;28;20480;-49
2023/05/25 04:05:27;;;;;;;5.80;2.03;;;9.30;99.90;;;;;;5054092;28;20094;-49
2023/05/25 04:07:53;;;;;;;7.93;2.33;;;9.40;99.90;;;;;;5053135;28;20472;-49
2023/05/25 04:10:19;;;;;;;7.35;2.00;;;9.40;99.90;;;;;;5052893;28;20055;-49
2023/05/25 04:12:44;;;;;;;6.83;2.40;;;9.40;99.90;;;;;;5053864;28;20044;-49
2023/05/25 04:15:13;;;;;;;5.73;2.37;;;9.40;99.90;;;;;;5052778;28;20053;-53
2023/05/25 04:17:41;;;;;;;8.90;2.40;;;9.40;99.90;;;;;;5053910;28;20045;-51
2023/05/25 04:20:08;;;;;;;5.63;2.22;;;9.40;99.90;;;;;;5052845;28;20515;-50
2023/05/25 04:22:37;;;;;;;6.22;2.20;;;9.50;99.90;;;;;;5053808;28;20052;-49
2023/05/25 04:25:07;;;;;;;4.78;1.98;;;9.50;99.90;;;;;;5053754;28;20199;-51
2023/05/25 04:27:32;;;;;;;6.15;2.63;;;9.60;99.90;;;;;;5053694;28;20049;-50
2023/05/25 04:29:59;;;;;;;5.83;2.20;;;9.60;99.90;;;;;;5053774;28;20041;-52
2023/05/25 04:32:28;;;;;;;5.65;1.92;;;9.60;99.90;;;;;;5052710;28;20056;-50
2023/05/25 04:34:57;;;;;;;6.40;2.53;;;9.60;99.90;;;;;;5053692;28;20515;-51
2023/05/25 04:37:26;;;;;;;5.88;2.20;;;9.60;99.90;;;;;;5053797;28;20388;-51
2023/05/25 04:39:52;;;;;;;5.10;2.42;;;9.60;99.90;;;;;;5053271;28;20492;-49
2023/05/25 04:42:18;;;;;;;7.68;2.35;;;9.70;99.90;;;;;;5052946;28;20044;-51
2023/05/25 04:44:44;;;;;;;6.13;2.17;;;9.70;99.90;;;;;;5053753;28;20045;-49
2023/05/25 04:47:11;;;;;;;7.67;2.10;;;9.70;99.90;;;;;;5053474;28;20056;-50
2023/05/25 04:49:37;;;;;;;;;;;9.70;99.90;;;;;;5053013;28;20048;-50
2023/05/25 04:52:02;;;;;;;6.05;2.60;;;9.80;99.90;;;;;;5052453;28;20291;-51
2023/05/25 04:54:28;;;;;;;6.20;2.53;;;9.80;99.90;;;;;;5053236;28;20040;-52
2023/05/25 04:56:54;;;;;;;5.20;2.30;;;9.90;99.90;;;;;;5053607;28;20107;-52
2023/05/25 04:59:20;;;;;;;7.23;2.90;;;9.90;99.90;;;;;;5052206;28;20041;-52
2023/05/25 05:01:45;;;;;;;5.13;2.50;;;9.90;99.90;;;;;;5053342;28;20056;-48
2023/05/25 05:04:11;;;;;;;7.27;2.43;;;10.00;99.90;;;;;;5053395;28;20370;-48
2023/05/25 05:06:37;;;;;;;6.33;2.60;;;10.10;99.90;;;;;;5052325;28;20136;-50
2023/05/25 05:09:03;;;;;;;6.28;2.75;;;10.10;99.90;;;;;;5053110;28;20047;-50
2023/05/25 05:11:29;;;;;;;5.70;2.47;;;10.20;99.90;;;;;;5051818;28;20045;-51
2023/05/25 05:13:55;;;;;;;8.17;3.37;;;10.30;99.90;;;;;;5051870;28;20057;-49
2023/05/25 05:16:21;;;;;;;5.65;2.40;;;10.40;99.90;;;;;;5052109;28;20290;-49
2023/05/25 05:18:47;;;;;;;9.80;3.00;;;10.60;99.90;;;;;;5053122;28;20088;-48
2023/05/25 05:21:13;;;;;;;6.50;3.00;;;10.70;99.90;;;;;;5051777;28;20081;-49
2023/05/25 05:23:39;;;;;;;5.27;2.47;;;10.90;99.90;;;;;;5053029;28;20045;-45
2023/05/25 05:26:08;;;;;;;7.55;3.10;;;11.00;99.90;;;;;;5053605;28;20441;-49
2023/05/25 05:28:34;;;;;;;7.38;2.40;;;11.10;99.90;;;;;;5053184;28;20053;-48
2023/05/25 05:31:00;;;;;;;;;;;11.20;99.90;;;;;;5053593;28;20163;-48
2023/05/25 05:33:26;;;;;;;6.13;2.15;;;11.30;99.90;;;;;;5052985;28;19920;-49
2023/05/25 05:35:53;;;;;;;6.63;2.37;;;11.30;99.90;;;;;;5051964;28;20124;-48
2023/05/25 05:38:20;;;;;;;5.72;2.33;;;11.40;99.90;;;;;;5052830;28;20412;-48
2023/05/25 05:40:45;;;;;;;8.40;1.90;;;11.40;99.90;;;;;;5053037;28;20123;-47
2023/05/25 05:43:12;;;;;;;7.07;2.30;;;11.50;99.90;;;;;;5052935;28;20171;-46
2023/05/25 05:45:37;;;;;;;;;;;11.50;99.90;;;;;;5053479;28;20053;-47
2023/05/25 05:48:05;;;;;;;6.20;1.50;;;11.60;99.90;;;;;;5052867;28;19990;-47
2023/05/25 05:50:31;;;;;;;7.03;2.22;;;11.60;99.90;;;;;;5052925;28;20049;-46
2023/05/25 05:52:56;;;;;;;4.85;1.67;;;11.70;99.90;;;;;;5053768;28;20044;-46
2023/05/25 05:55:22;;;;;;;6.13;1.70;;;11.80;99.90;;;;;;5056537;28;20091;-46
2023/05/25 05:57:48;;;;;;;6.43;1.60;;;11.80;99.90;;;;;;5056430;28;20041;-46
2023/05/25 06:00:14;;;;;;;5.50;1.57;;;11.80;99.90;;;;;;5056402;28;20095;-47
2023/05/25 06:02:41;;;;;;;5.05;1.30;;;11.90;99.90;;;;;;5056315;28;20098;-46
2023/05/25 06:05:07;;;;;;;6.57;2.17;;;11.90;99.90;;;;;;5055215;28;20546;-47
2023/05/25 06:07:34;;;;;;;;;;;11.90;99.90;;;;;;5056445;28;20044;-47
2023/05/25 06:10:00;;;;;;;5.47;1.20;;;12.00;99.90;;;;;;5056643;28;19971;-47
2023/05/25 06:12:26;;;;;;;6.18;1.40;;;12.00;99.90;;;;;;5056205;28;20056;-47
2023/05/25 06:14:52;;;;;;;7.35;1.48;;;12.10;99.90;;;;;;5055872;28;20053;-46
2023/05/25 06:17:17;;;;;;;7.88;1.73;;;12.10;99.90;;;;;;5055182;28;20056;-47
2023/05/25 06:19:44;;;;;;;6.03;1.90;;;12.10;99.90;;;;;;5056029;28;20045;-47
2023/05/25 06:22:10;;;;;;;6.63;1.58;;;12.10;99.90;;;;;;5055696;28;20353;-46
2023/05/25 06:24:35;;;;;;;7.83;1.47;;;12.10;99.90;;;;;;5055992;28;20400;-46
2023/05/25 06:27:02;;;;;;;6.63;1.70;;;12.20;99.90;;;;;;5055967;28;20311;-46
2023/05/25 06:29:28;;;;;;;;;;;12.30;99.90;;;;;;5056303;28;20120;-47
2023/05/25 06:31:53;;;;;;;7.47;1.90;;;12.30;99.90;;;;;;5055767;28;19968;-47
2023/05/25 06:34:19;;;;;;;5.57;1.60;;;12.30;99.90;;;;;;5055813;28;20118;-46
2023/05/25 06:36:46;;;;;;;6.40;1.40;;;12.40;99.90;;;;;;5055725;28;20049;-47
2023/05/25 06:39:12;;;;;;;;;;;12.50;99.90;;;;;;5056112;28;20049;-47
2023/05/25 06:41:39;;;;;;;6.35;1.77;;;12.50;99.90;;;;;;5055662;28;19927;-47
2023/05/25 06:44:05;;;;;;;4.45;1.20;;;12.50;99.90;;;;;;5055608;28;20496;-46
2023/05/25 06:46:31;;;;;;;6.82;2.28;;;12.50;99.90;;;;;;5055516;28;20049;-46
2023/05/25 06:48:59;;;;;;;7.70;2.00;;;12.60;99.90;;;;;;5055518;28;20110;-47
2023/05/25 06:51:26;;;;;;;5.90;1.58;;;12.60;99.90;;;;;;5054426;28;20052;-46
2023/05/25 06:53:54;;;;;;;10.77;1.83;;;12.70;99.90;;;;;;5055443;28;20484;-45
2023/05/25 06:56:21;;;;;;;10.55;1.92;;;12.70;99.90;;;;;;5055415;28;20080;-47
2023/05/25 06:58:47;;;;;;;6.00;1.50;;;12.70;99.90;;;;;;5055349;28;20060;-47
2023/05/25 07:01:13;;;;;;;8.90;1.80;;;12.70;99.90;;;;;;5055136;28;20044;-48
2023/05/25 07:03:39;;;;;;;7.50;1.77;;;12.80;99.90;;;;;;5054775;28;20047;-46
2023/05/25 07:06:05;;;;;;;7.67;1.47;;;13.00;99.90;;;;;;5055089;28;20282;-46
2023/05/25 07:08:31;;;;;;;7.38;1.75;;;13.20;99.90;;;;;;5055478;28;20041;-46
2023/05/25 07:10:57;;;;;;;4.23;1.43;;;13.50;99.90;;;;;;5055340;28;20055;-47
2023/05/25 07:13:22;;;;;;;6.47;1.53;;;13.60;99.90;;;;;;5054743;28;20049;-47
2023/05/25 07:15:48;;;;;;;10.90;2.53;;;13.70;99.90;;;;;;5054925;28;20642;-47
2023/05/25 07:18:15;;;;;;;12.30;1.92;;;13.80;99.90;;;;;;5054722;28;20049;-46
2023/05/25 07:20:40;;;;;;;10.50;1.48;;;13.80;99.90;;;;;;5053697;28;20056;-47
2023/05/25 07:23:10;;;;;;;5.53;1.13;;;14.00;99.90;;;;;;5054080;28;20132;-46
2023/05/25 07:25:39;;;;;;;8.15;2.00;;;14.40;99.90;;;;;;5054782;28;20045;-47
2023/05/25 07:28:06;;;;;;;6.78;1.77;;;14.60;99.90;;;;;;5054718;28;20041;-46
2023/05/25 07:30:32;;;;;;;14.00;2.72;;;14.50;99.90;;;;;;5054725;28;20480;-47
2023/05/25 07:32:57;;;;;;;8.48;2.00;;;14.20;99.90;;;;;;5054593;28;20059;-47
2023/05/25 07:35:26;;;;;;;7.27;1.50;;;13.80;99.90;;;;;;5054454;28;20202;-46
2023/05/25 07:37:59;;;;;;;7.15;1.92;;;13.50;99.90;;;;;;5054746;28;20100;-48
2023/05/25 07:40:25;;;;;;;7.43;1.73;;;13.30;99.90;;;;;;5054515;28;20084;-47
2023/05/25 07:42:51;;;;;;;11.15;1.35;;;13.10;99.90;;;;;;5054487;28;20087;-47
2023/05/25 07:45:16;;;;;;;5.75;1.40;;;13.00;99.90;;;;;;5054501;28;20084;-48
2023/05/25 07:47:42;;;;;;;9.10;1.53;;;13.00;99.90;;;;;;5054188;28;20395;-46
2023/05/25 07:50:08;;;;;;;8.70;2.07;;;13.00;99.90;;;;;;5054483;28;20045;-48
2023/05/25 07:52:34;;;;;;;5.88;1.60;;;13.20;99.90;;;;;;5054721;28;20091;-45
2023/05/25 07:54:59;;;;;;;7.65;1.30;;;13.30;99.90;;;;;;5054317;28;20045;-48
2023/05/25 07:57:25;;;;;;;8.33;1.50;;;13.40;99.90;;;;;;5054144;28;20630;-45
2023/05/25 07:59:51;;;;;;;5.65;1.30;;;13.50;99.90;;;;;;5054327;28;20045;-46
2023/05/25 08:02:17;;;;;;;5.20;1.10;;;13.60;99.90;;;;;;5053793;28;20064;-46
2023/05/25 08:04:42;;;;;;;10.40;2.33;;;13.60;99.90;;;;;;5054179;28;20287;-48
2023/05/25 08:07:08;;;;;;;9.27;2.20;;;13.60;99.90;;;;;;5054082;28;20045;-47
2023/05/25 08:09:34;;;;;;;8.20;1.73;;;13.60;99.90;;;;;;5054064;28;20126;-46
2023/05/25 08:12:00;;;;;;;7.67;1.27;;;13.60;99.90;;;;;;5054128;28;20086;-46
2023/05/25 08:14:26;;;;;;;5.57;1.15;;;13.60;99.90;;;;;;5053885;28;20053;-47
2023/05/25 08:16:52;;;;;;;12.57;1.13;;;13.50;99.90;;;;;;5052841;28;20056;-47
2023/05/25 08:19:17;;;;;;;7.43;1.40;;;13.50;99.90;;;;;;5053871;28;20049;-48
2023/05/25 08:21:43;;;;;;;8.87;1.47;;;13.50;99.90;;;;;;5053633;28;20434;-48
2023/05/25 08:24:09;;;;;;;8.13;2.10;;;13.50;99.90;;;;;;5053835;28;20055;-47
2023/05/25 08:26:35;;;;;;;7.73;1.30;;;13.60;99.90;;;;;;5053725;28;20501;-47
2023/05/25 08:29:04;;;;;;;7.43;1.48;;;13.60;99.90;;;;;;5053537;28;20150;-47
2023/05/25 08:31:31;;;;;;;8.55;1.10;;;13.60;99.90;;;;;;5053461;28;20045;-47
2023/05/25 08:33:57;;;;;;;6.78;1.30;;;13.70;99.90;;;;;;5053716;28;20045;-47
2023/05/25 08:36:24;;;;;;;10.82;1.65;;;13.60;99.90;;;;;;5053655;28;20048;-46
2023/05/25 08:38:50;;;;;;;8.45;1.33;;;13.60;99.90;;;;;;5053713;28;20109;-47
2023/05/25 08:41:16;;;;;;;8.33;1.43;;;13.60;99.90;;;;;;5053533;28;20552;-47
2023/05/25 08:43:42;;;;;;;8.37;1.40;;;13.70;99.90;;;;;;5053455;28;20279;-47
2023/05/25 08:46:08;;;;;;;12.88;1.40;;;13.80;99.90;;;;;;5053336;28;20059;-47
2023/05/25 08:48:35;;;;;;;10.85;3.15;;;13.80;99.90;;;;;;5053698;28;20060;-47
2023/05/25 08:51:07;;;;;;;8.93;1.15;;;13.90;99.90;;;;;;5053472;28;20128;-47
2023/05/25 08:53:37;;;;;;;5.93;1.38;;;13.90;99.90;;;;;;5053451;28;20041;-47
2023/05/25 08:56:19;;;;;;;7.07;1.30;;;14.00;99.90;;;;;;5053391;28;20132;-47
2023/05/25 08:58:56;;;;;;;7.20;1.27;;;14.00;99.90;;;;;;5052270;28;20064;-48
2023/05/25 09:01:27;;;;;;;10.25;1.70;;;14.00;99.90;;;;;;5052237;28;20037;-46
2023/05/25 09:03:55;;;;;;;11.18;1.70;;;14.10;99.90;;;;;;5053267;28;20049;-47
2023/05/25 09:06:23;;;;;;;8.20;1.45;;;14.10;99.90;;;;;;5053238;28;20041;-48
2023/05/25 09:08:49;;;;;;;7.18;1.58;;;14.20;99.90;;;;;;5053203;28;20047;-47
2023/05/25 09:11:15;;;;;;;7.15;1.40;;;14.10;99.90;;;;;;5053226;28;20033;-46
2023/05/25 09:13:41;;;;;;;4.05;1.55;;;14.00;99.90;;;;;;5053433;28;20064;-47
2023/05/25 09:16:07;;;;;;;10.43;1.58;;;13.80;99.90;;;;;;5053700;28;20159;-48
2023/05/25 09:18:33;;;;;;;7.37;1.63;;;13.70;99.90;;;;;;5053064;28;20143;-47
2023/05/25 09:21:00;;;;;;;5.47;1.37;;;13.70;99.90;;;;;;5052064;28;20350;-47
2023/05/25 09:23:25;;;;;;;7.30;1.75;;;13.70;99.90;;;;;;5052907;28;20056;-46
2023/05/25 09:25:52;;;;;;;7.68;1.80;;;13.80;99.90;;;;;;5052835;28;20045;-46
2023/05/25 09:28:19;;;;;;;7.72;1.38;;;13.90;99.90;;;;;;5055324;28;20127;-46
2023/05/25 09:30:45;;;;;;;8.40;1.40;;;13.90;99.90;;;;;;5056930;28;20053;-47
2023/05/25 09:33:17;;;;;;;7.60;1.43;;;13.80;99.90;;;;;;5056777;28;20045;-47
2023/05/25 09:35:47;;;;;;;8.45;1.40;;;13.80;99.90;;;;;;5055948;28;20049;-48
2023/05/25 09:38:17;;;;;;;7.35;1.65;;;13.80;99.90;;;;;;5056551;28;20044;-47
2023/05/25 09:40:43;;;;;;;8.20;1.90;;;13.90;99.90;;;;;;5056100;28;20384;-46
2023/05/25 09:43:11;;;;;;;7.68;1.48;;;13.80;99.90;;;;;;5056870;28;20373;-47
2023/05/25 09:45:37;;;;;;;10.43;1.63;;;13.80;99.90;;;;;;5056726;28;20057;-47
2023/05/25 09:48:05;;;;;;;5.95;1.40;;;13.80;99.90;;;;;;5056730;28;20123;-47
2023/05/25 09:50:31;;;;;;;7.85;1.65;;;13.80;99.90;;;;;;5056527;28;20052;-47
2023/05/25 09:53:01;;;;;;;9.30;1.95;;;13.90;99.90;;;;;;5056330;28;20401;-47
2023/05/25 09:55:30;;;;;;;13.68;2.83;;;14.00;99.90;;;;;;5056525;28;20055;-47
2023/05/25 09:57:56;;;;;;;10.52;2.63;;;14.00;99.90;;;;;;5056475;28;20084;-47
2023/05/25 10:00:23;;;;;;;8.57;1.90;;;14.00;99.90;;;;;;5056381;28;20508;-47
2023/05/25 10:02:49;;;;;;;12.10;1.65;;;13.90;99.90;;;;;;5056320;28;20033;-46
2023/05/25 10:05:16;;;;;;;7.78;1.92;;;13.80;99.90;;;;;;5056152;28;20091;-49
2023/05/25 10:07:43;;;;;;;10.52;1.83;;;13.80;99.90;;;;;;5056309;28;20052;-47
2023/05/25 10:10:11;;;;;;;5.70;1.50;;;13.80;99.90;;;;;;5056761;28;20463;-48
2023/05/25 10:12:40;;;;;;;9.55;1.63;;;13.90;99.90;;;;;;5056221;28;20119;-47
2023/05/25 10:15:08;;;;;;;13.57;1.95;;;13.90;99.90;;;;;;5055928;28;20535;-47
2023/05/25 10:17:35;;;;;;;9.82;1.98;;;14.00;99.90;;;;;;5055094;28;20512;-48
2023/05/25 10:20:04;;;;;;;10.07;1.30;;;14.00;99.90;;;;;;5056042;28;20052;-47
2023/05/25 10:22:58;;;;;;;7.85;1.40;;;14.10;99.90;;;;;;5055970;28;20087;-46
2023/05/25 10:25:27;;;;;;;8.98;1.88;;;14.00;99.90;;;;;;5056270;28;20041;-47
2023/05/25 10:28:02;;;;;;;7.88;1.60;;;14.00;99.90;;;;;;5055861;28;20052;-46
2023/05/25 10:30:28;;;;;;;6.03;1.20;;;14.10;99.90;;;;;;5055842;28;20084;-46
2023/05/25 10:32:55;;;;;;;9.07;2.00;;;14.20;99.90;;;;;;5055889;28;20049;-46
2023/05/25 10:35:22;;;;;;;6.47;1.70;;;14.30;99.90;;;;;;5055907;28;20084;-47
2023/05/25 10:37:51;;;;;;;10.07;1.65;;;14.30;99.90;;;;;;5055566;28;20079;-48
2023/05/25 10:40:20;;;;;;;7.22;1.15;;;14.30;99.90;;;;;;5054203;28;20437;-48
2023/05/25 10:42:47;;;;;;;7.68;1.30;;;14.30;99.90;;;;;;5055352;28;20037;-48
2023/05/25 10:45:13;;;;;;;6.07;1.52;;;14.30;99.90;;;;;;5054419;28;20049;-46
2023/05/25 10:47:45;;;;;;;5.65;1.35;;;14.30;99.90;;;;;;5055656;28;20049;-46
2023/05/25 10:50:23;;;;;;;9.52;1.88;;;14.40;99.90;;;;;;5055744;28;20484;-48
2023/05/25 10:53:10;;;;;;;8.68;1.77;;;14.50;99.90;;;;;;5055380;28;20048;-50
2023/05/25 10:56:03;;;;;;;9.82;2.00;;;14.50;99.90;;;;;;5055318;28;20053;-46
2023/05/25 10:58:29;;;;;;;8.98;1.52;;;14.50;99.90;;;;;;5055542;28;20107;-47
2023/05/25 11:01:02;;;;;;;;;;;14.60;99.90;;;;;;5055559;28;20048;-47
2023/05/25 11:03:43;;;;;;;8.13;1.30;;;14.60;99.90;;;;;;5055227;28;20299;-49
2023/05/25 11:06:14;;;;;;;6.05;1.17;;;14.80;99.90;;;;;;5055068;28;20115;-48
2023/05/25 11:08:50;;;;;;;5.68;1.30;;;15.00;99.90;;;;;;5055281;28;20053;-47
2023/05/25 11:11:16;;;;;;;9.77;1.55;;;15.20;99.90;;;;;;5055507;28;20045;-46
2023/05/25 11:13:49;;;;;;;6.57;1.40;;;15.40;99.90;;;;;;5054922;28;20098;-47
2023/05/25 11:16:34;;;;;;;5.72;1.10;;;15.30;99.90;;;;;;5054813;28;20108;-50
2023/05/25 11:19:01;;;;;;;9.10;1.52;;;15.40;99.90;;;;;;5054925;28;20527;-46
2023/05/25 11:21:29;;;;;;;6.60;1.90;;;15.50;99.90;;;;;;5054918;28;20132;-49
2023/05/25 11:24:05;;;;;;;6.97;1.30;;;15.50;99.90;;;;;;5053947;28;20052;-46
2023/05/25 11:26:35;;;;;;;11.05;1.90;;;15.30;99.90;;;;;;5053824;28;20092;-47
2023/05/25 11:29:14;;;;;;;9.02;1.98;;;15.20;99.90;;;;;;5054824;28;20473;-47
2023/05/25 11:31:40;;;;;;;6.32;1.55;;;15.30;99.90;;;;;;5053834;28;20052;-47
2023/05/25 11:34:06;;;;;;;6.85;1.67;;;15.50;99.90;;;;;;5054977;28;20041;-47
2023/05/25 11:36:34;;;;;;;11.15;1.92;;;15.70;99.90;;;;;;5054726;28;20132;-46
2023/05/25 11:39:03;;;;;;;7.93;1.80;;;15.80;99.90;;;;;;5054543;28;20088;-49
2023/05/25 11:41:30;;;;;;;5.57;1.38;;;15.70;99.90;;;;;;5053332;28;20503;-47
2023/05/25 11:44:05;;;;;;;9.63;1.67;;;15.50;99.90;;;;;;5054494;28;20056;-47
2023/05/25 11:46:33;;;;;;;7.60;1.90;;;15.30;99.90;;;;;;5054540;28;20060;-47
2023/05/25 11:49:00;;;;;;;7.20;1.20;;;15.20;99.90;;;;;;5054158;28;20045;-47
2023/05/25 11:51:27;;;;;;;7.10;1.30;;;15.30;99.90;;;;;;5053359;28;20369;-48
2023/05/25 11:53:53;;;;;;;12.52;2.45;;;15.30;99.90;;;;;;5052998;28;20084;-48
2023/05/25 11:56:21;;;;;;;7.07;1.67;;;15.40;99.90;;;;;;5053534;28;20041;-47
2023/05/25 11:58:48;;;;;;;7.15;1.55;;;15.40;99.90;;;;;;5053360;28;20052;-46
2023/05/25 12:01:19;;;;;;;6.78;1.75;;;15.30;99.90;;;;;;5054094;28;20108;-46
2023/05/25 12:03:49;;;;;;;8.30;1.48;;;15.20;99.90;;;;;;5054105;28;20488;-46
2023/05/25 12:06:29;;;;;;;10.52;1.98;;;15.20;99.90;;;;;;5053935;28;20048;-46
2023/05/25 12:08:55;;;;;;;7.88;1.50;;;15.10;99.90;;;;;;5054301;28;20067;-47
2023/05/25 12:11:29;;;;;;;8.52;1.48;;;15.00;99.90;;;;;;5054009;28;20514;-47
2023/05/25 12:13:56;;;;;;;6.13;1.80;;;14.90;99.90;;;;;;5053753;28;20520;-47
2023/05/25 12:16:22;;;;;;;9.43;2.08;;;14.90;99.90;;;;;;5053971;28;20051;-48
2023/05/25 12:18:49;;;;;;;11.65;1.40;;;14.80;99.90;;;;;;5053681;28;20041;-47
2023/05/25 12:21:15;;;;;;;5.50;1.50;;;14.80;99.90;;;;;;5053700;28;20114;-48
2023/05/25 12:23:41;;;;;;;8.00;1.25;;;14.80;99.90;;;;;;5053772;28;20481;-48
2023/05/25 12:26:15;;;;;;;7.93;1.70;;;14.80;99.90;;;;;;5053695;28;20053;-49
2023/05/25 12:29:00;;;;;;;8.52;2.00;;;14.80;99.90;;;;;;5053842;28;20095;-49
2023/05/25 12:31:28;;;;;;;10.10;2.03;;;14.70;99.90;;;;;;5052520;28;20045;-48
2023/05/25 12:34:09;;;;;;;9.85;2.40;;;14.80;99.90;;;;;;5053637;28;20055;-49
2023/05/25 12:36:47;;;;;;;7.97;1.48;;;14.80;99.90;;;;;;5052483;28;20052;-47
2023/05/25 12:39:15;;;;;;;7.68;1.90;;;14.70;99.90;;;;;;5052757;28;20052;-48
2023/05/25 12:41:52;;;;;;;8.27;1.52;;;14.80;99.90;;;;;;5053512;28;20048;-47
2023/05/25 12:44:22;;;;;;;9.65;2.03;;;14.90;99.90;;;;;;5054062;28;20128;-47
2023/05/25 12:46:49;;;;;;;5.32;1.20;;;14.90;99.90;;;;;;5053671;28;20127;-46
2023/05/25 12:49:30;;;;;;;10.68;1.88;;;14.90;99.90;;;;;;5053422;28;20088;-48
2023/05/25 12:51:57;;;;;;;6.40;1.80;;;14.90;99.90;;;;;;5053463;28;20040;-47
2023/05/25 12:54:34;;;;;;;5.80;2.22;;;15.20;99.90;;;;;;5053399;28;20056;-46
2023/05/25 12:57:05;;;;;;;9.13;1.90;;;15.40;99.90;;;;;;5052886;28;20052;-48
2023/05/25 12:59:32;;;;;;;8.48;1.35;;;15.40;99.90;;;;;;5053247;28;20538;-47